createdAt,value
2022-09-16T00:01:29.952Z,99936.52
2022-09-16T00:03:58.769Z,99934.27
2022-09-16T00:06:30.231Z,99930.77
2022-09-16T00:09:03.421Z,99928.85
2022-09-16T00:11:34.736Z,99924.77
2022-09-16T00:14:03.960Z,99924.86
2022-09-16T00:16:32.888Z,99918.73
2022-09-16T00:19:02.428Z,99907.88
2022-09-16T00:21:32.058Z,99907.04
2022-09-16T00:24:00.753Z,99897.57
2022-09-16T00:26:30.363Z,99898.33
2022-09-16T00:28:59.157Z,99899.16
2022-09-16T00:31:27.769Z,99902.83
2022-09-16T00:33:56.627Z,99896.98
2022-09-16T00:36:25.214Z,99892.60
2022-09-16T00:38:55.380Z,99890.21
2022-09-16T00:41:33.308Z,99894.86
2022-09-16T00:44:40.629Z,99894.63
2022-09-16T00:47:09.586Z,99892.38
2022-09-16T00:49:38.520Z,99891.77
2022-09-16T00:52:08.736Z,99884.67
2022-09-16T00:54:40.733Z,99885.77
2022-09-16T00:57:12.868Z,99883.45
2022-09-16T00:59:46.552Z,99881.09
2022-09-16T01:02:19.869Z,99877.24
2022-09-16T01:04:59.540Z,99876.14
2022-09-16T01:07:40.895Z,99873.50
2022-09-16T01:10:10.660Z,99871.10
2022-09-16T01:12:43.285Z,99872.02
2022-09-16T01:15:14.739Z,99870.48
2022-09-16T01:18:11.479Z,99870.98
2022-09-16T01:21:11.711Z,99869.98
2022-09-16T01:24:09.579Z,99867.91
2022-09-16T01:26:55.776Z,99870.81
2022-09-16T01:29:51.396Z,99874.42
2022-09-16T01:32:33.084Z,99875.94
2022-09-16T01:35:37.099Z,99879.96
2022-09-16T01:38:26.677Z,99881.39
2022-09-16T01:41:01.315Z,99875.77
2022-09-16T01:43:38.898Z,99878.52
2022-09-16T01:46:26.783Z,99878.29
2022-09-16T01:49:14.263Z,99876.16
2022-09-16T01:51:48.170Z,99875.48
2022-09-16T01:54:46.144Z,99873.17
2022-09-16T01:57:20.956Z,99877.54
2022-09-16T01:59:56.977Z,99883.16
2022-09-16T02:02:34.310Z,99880.70
2022-09-16T02:05:08.894Z,99875.59
2022-09-16T02:07:42.354Z,99878.74
2022-09-16T02:10:20.553Z,99881.87
2022-09-16T02:12:51.158Z,99877.71
2022-09-16T02:15:24.049Z,99878.13
2022-09-16T02:18:01.565Z,99879.63
2022-09-16T02:20:32.748Z,99882.20
2022-09-16T02:23:16.555Z,99887.30
2022-09-16T02:25:47.407Z,99891.29
2022-09-16T02:28:24.588Z,99895.66
2022-09-16T02:30:57.074Z,99893.87
2022-09-16T02:33:33.925Z,99891.23
2022-09-16T02:36:05.544Z,99893.77
2022-09-16T02:38:48.652Z,99899.11
2022-09-16T02:41:17.908Z,99896.49
2022-09-16T02:43:47.006Z,99899.55
2022-09-16T02:46:33.849Z,99893.32
2022-09-16T02:49:27.082Z,99890.85
2022-09-16T02:52:10.630Z,99893.84
2022-09-16T02:54:42.370Z,99902.01
2022-09-16T02:57:11.469Z,99906.36
2022-09-16T02:59:40.359Z,99912.33
2022-09-16T03:02:09.413Z,99915.49
2022-09-16T03:04:38.660Z,99915.65
2022-09-16T03:07:10.300Z,99907.82
2022-09-16T03:09:42.928Z,99910.67
2022-09-16T03:12:22.943Z,99916.54
2022-09-16T03:14:51.425Z,99917.85
2022-09-16T03:17:22.872Z,99915.74
2022-09-16T03:20:12.244Z,99917.33
2022-09-16T03:22:59.366Z,99916.02
2022-09-16T03:25:57.553Z,99915.08
2022-09-16T03:28:33.601Z,99914.00
2022-09-16T03:31:09.708Z,99913.86
2022-09-16T03:33:46.898Z,99908.95
2022-09-16T03:36:19.934Z,99906.23
2022-09-16T03:38:50.542Z,99903.67
2022-09-16T03:41:19.569Z,99899.70
2022-09-16T03:43:59.192Z,99893.61
2022-09-16T03:46:32.721Z,99896.05
2022-09-16T03:49:01.700Z,99896.09
2022-09-16T03:51:30.399Z,99896.64
2022-09-16T03:53:59.277Z,99901.45
2022-09-16T03:56:27.963Z,99904.45
2022-09-16T03:58:56.859Z,99898.47
2022-09-16T04:01:25.774Z,99902.88
2022-09-16T04:03:54.840Z,99903.88
2022-09-16T04:06:23.533Z,99904.09
2022-09-16T04:08:52.114Z,99904.48
2022-09-16T04:11:21.312Z,99904.09
2022-09-16T04:13:50.001Z,99901.38
2022-09-16T04:16:22.548Z,99900.36
2022-09-16T04:18:51.368Z,99902.19
2022-09-16T04:21:20.571Z,99901.88
2022-09-16T04:23:49.866Z,99899.35
2022-09-16T04:26:18.665Z,99898.91
2022-09-16T04:28:48.332Z,99904.46
2022-09-16T04:31:17.033Z,99903.30
2022-09-16T04:33:46.353Z,99902.11
2022-09-16T04:36:17.386Z,99909.19
2022-09-16T04:38:47.991Z,99917.29
2022-09-16T04:41:20.472Z,99917.57
2022-09-16T04:43:56.349Z,99912.33
2022-09-16T04:46:26.943Z,99909.23
2022-09-16T04:48:57.278Z,99912.83
2022-09-16T04:51:28.216Z,99927.36
2022-09-16T04:53:57.973Z,99920.77
2022-09-16T04:56:29.161Z,99921.63
2022-09-16T04:59:01.049Z,99920.85
2022-09-16T05:01:32.774Z,99918.02
2022-09-16T05:04:04.357Z,99927.58
2022-09-16T05:06:35.605Z,99934.43
2022-09-16T05:09:05.097Z,99934.96
2022-09-16T05:11:37.509Z,99935.10
2022-09-16T05:14:13.873Z,99935.56
2022-09-16T05:16:43.381Z,99942.41
2022-09-16T05:19:13.421Z,99940.14
2022-09-16T05:21:42.541Z,99939.79
2022-09-16T05:24:13.123Z,99942.91
2022-09-16T05:26:43.456Z,99945.09
2022-09-16T05:29:16.299Z,99945.98
2022-09-16T05:31:47.872Z,99948.46
2022-09-16T05:34:23.504Z,99945.95
2022-09-16T05:36:54.379Z,99950.73
2022-09-16T05:39:25.370Z,99953.32
2022-09-16T05:42:00.372Z,99954.33
2022-09-16T05:44:29.981Z,99955.98
2022-09-16T05:46:58.546Z,99955.69
2022-09-16T05:49:27.539Z,99956.86
2022-09-16T05:51:57.043Z,99961.30
2022-09-16T05:54:25.689Z,99973.00
2022-09-16T05:56:54.437Z,99974.52
2022-09-16T05:59:24.490Z,99971.64
2022-09-16T06:01:53.674Z,99969.46
2022-09-16T06:04:22.427Z,99969.07
2022-09-16T06:06:51.211Z,99971.45
2022-09-16T06:09:24.799Z,99974.33
2022-09-16T06:12:01.448Z,99980.73
2022-09-16T06:14:31.303Z,99982.73
2022-09-16T06:16:59.993Z,99984.46
2022-09-16T06:19:29.035Z,99985.04
2022-09-16T06:21:57.666Z,99988.33
2022-09-16T06:24:26.969Z,99989.55
2022-09-16T06:26:55.653Z,99981.61
2022-09-16T06:29:24.338Z,99974.63
2022-09-16T06:31:53.031Z,99977.19
2022-09-16T06:34:21.509Z,99984.63
2022-09-16T06:36:50.297Z,99986.88
2022-09-16T06:39:18.994Z,99992.17
2022-09-16T06:41:52.899Z,99985.34
2022-09-16T06:44:24.959Z,99982.07
2022-09-16T06:46:53.650Z,99990.29
2022-09-16T06:49:22.231Z,99995.89
2022-09-16T06:51:52.023Z,99992.80
2022-09-16T06:54:20.751Z,99990.43
2022-09-16T06:56:50.030Z,99989.84
2022-09-16T06:59:18.723Z,99988.14
2022-09-16T07:01:47.468Z,99988.16
2022-09-16T07:04:16.507Z,99988.21
2022-09-16T07:09:35.789Z,99985.13
2022-09-16T07:12:04.882Z,99983.25
2022-09-16T07:14:33.679Z,99983.82
2022-09-16T07:17:02.735Z,99980.27
2022-09-16T07:19:31.564Z,99983.48
2022-09-16T07:22:00.145Z,99986.55
2022-09-16T07:24:28.723Z,99993.65
2022-09-16T07:26:57.313Z,99999.48
2022-09-16T07:29:25.996Z,100000.32
2022-09-16T07:31:54.710Z,100000.29
2022-09-16T07:34:23.782Z,99998.41
2022-09-16T07:36:53.134Z,99998.23
2022-09-16T07:39:21.988Z,100000.75
2022-09-16T07:41:50.554Z,100006.96
2022-09-16T07:44:20.883Z,99997.70
2022-09-16T07:46:51.672Z,99998.34
2022-09-16T07:49:20.826Z,100000.05
2022-09-16T07:51:49.912Z,99995.30
2022-09-16T07:54:20.372Z,99993.15
2022-09-16T07:56:49.537Z,99989.55
2022-09-16T07:59:19.870Z,99991.55
2022-09-16T08:01:50.430Z,99997.63
2022-09-16T08:04:20.571Z,100007.75
2022-09-16T08:06:51.257Z,100009.21
2022-09-16T08:09:39.819Z,100005.54
2022-09-16T08:12:11.176Z,100002.00
2022-09-16T08:14:40.045Z,100004.12
2022-09-16T08:17:08.881Z,100007.23
2022-09-16T08:19:39.614Z,100005.48
2022-09-16T08:22:08.456Z,100005.19
2022-09-16T08:24:37.346Z,100005.25
2022-09-16T08:27:06.239Z,100006.02
2022-09-16T08:29:35.025Z,100019.02
2022-09-16T08:32:03.768Z,100023.75
2022-09-16T08:34:32.634Z,100024.02
2022-09-16T08:37:01.398Z,100017.91
2022-09-16T08:39:30.495Z,100016.33
2022-09-16T08:42:23.299Z,100015.92
2022-09-16T08:45:21.210Z,100020.89
2022-09-16T08:48:08.431Z,100031.14
2022-09-16T08:50:47.326Z,100035.77
2022-09-16T08:53:19.423Z,100031.28
2022-09-16T08:55:50.544Z,100025.73
2022-09-16T08:58:40.965Z,100022.26
2022-09-16T09:01:25.143Z,100015.48
2022-09-16T09:03:54.599Z,100015.17
2022-09-16T09:06:23.101Z,100018.16
2022-09-16T09:09:05.924Z,100017.17
2022-09-16T09:12:11.964Z,100021.71
2022-09-16T09:15:04.529Z,100033.89
2022-09-16T09:17:49.914Z,100041.32
2022-09-16T09:20:55.763Z,100038.77
2022-09-16T09:23:42.991Z,100029.20
2022-09-16T09:26:20.893Z,100025.23
2022-09-16T09:28:57.791Z,100026.98
2022-09-16T09:31:41.683Z,100027.61
2022-09-16T09:35:00.111Z,100030.25
2022-09-16T09:37:59.473Z,100039.61
2022-09-16T09:40:28.287Z,100039.36
2022-09-16T09:43:19.581Z,100039.06
2022-09-16T09:46:01.630Z,100041.98
2022-09-16T09:48:45.323Z,100046.59
2022-09-16T09:51:39.308Z,100055.04
2022-09-16T09:54:37.895Z,100055.14
2022-09-16T09:57:27.767Z,100057.05
2022-09-16T10:00:12.531Z,100061.56
2022-09-16T10:02:48.837Z,100060.92
2022-09-16T10:05:27.416Z,100067.33
2022-09-16T10:08:00.740Z,100066.05
2022-09-16T10:10:33.932Z,100061.87
2022-09-16T10:13:11.146Z,100063.02
2022-09-16T10:15:40.906Z,100060.61
2022-09-16T10:18:24.127Z,100061.48
2022-09-16T10:20:58.202Z,100057.34
2022-09-16T10:23:29.909Z,100050.15
2022-09-16T10:26:22.670Z,100050.21
2022-09-16T10:29:16.932Z,100047.05
2022-09-16T10:31:46.403Z,100051.68
2022-09-16T10:34:33.044Z,100052.36
2022-09-16T10:37:13.712Z,100050.64
2022-09-16T10:39:53.110Z,100045.03
2022-09-16T10:42:24.677Z,100037.68
2022-09-16T10:44:57.899Z,100045.15
2022-09-16T10:47:33.153Z,100051.46
2022-09-16T10:50:05.995Z,100055.64
2022-09-16T10:52:47.082Z,100049.79
2022-09-16T10:55:24.180Z,100046.78
2022-09-16T10:57:54.151Z,100047.20
2022-09-16T11:00:25.680Z,100053.27
2022-09-16T11:03:26.490Z,100062.77
2022-09-16T11:06:26.106Z,100060.38
2022-09-16T11:09:25.040Z,100053.39
2022-09-16T11:12:03.783Z,100052.23
2022-09-16T11:15:16.046Z,100048.48
2022-09-16T11:18:21.249Z,100053.29
2022-09-16T11:21:14.550Z,100054.75
2022-09-16T11:24:15.480Z,100061.70
2022-09-16T11:26:50.657Z,100060.33
2022-09-16T11:29:27.822Z,100059.59
2022-09-16T11:32:19.432Z,100061.10
2022-09-16T11:35:08.192Z,100059.80
2022-09-16T11:37:47.416Z,100060.68
2022-09-16T11:40:28.143Z,100065.38
2022-09-16T11:43:05.110Z,100071.17
2022-09-16T11:45:36.569Z,100072.90
2022-09-16T11:48:23.743Z,100070.42
2022-09-16T11:51:13.626Z,100069.29
2022-09-16T11:54:02.811Z,100072.20
2022-09-16T11:56:47.451Z,100066.88
2022-09-16T11:59:25.049Z,100050.54
2022-09-16T12:02:18.540Z,100047.20
2022-09-16T12:04:51.913Z,100047.91
2022-09-16T12:07:49.275Z,100051.08
2022-09-16T12:10:33.221Z,100048.79
2022-09-16T12:13:07.566Z,100047.39
2022-09-16T12:15:49.842Z,100043.79
2022-09-16T12:18:27.152Z,100038.16
2022-09-16T12:21:08.078Z,100032.95
2022-09-16T12:23:54.322Z,100032.69
2022-09-16T12:26:30.732Z,100029.99
2022-09-16T12:29:20.347Z,100031.69
2022-09-16T12:32:10.743Z,100037.47
2022-09-16T12:34:50.395Z,100029.12
2022-09-16T12:37:34.342Z,100029.41
2022-09-16T12:40:05.419Z,100026.77
2022-09-16T12:43:00.085Z,100020.83
2022-09-16T12:45:53.642Z,100014.64
2022-09-16T12:48:25.394Z,100013.01
2022-09-16T12:51:35.966Z,100013.36
2022-09-16T12:54:13.352Z,100011.70
2022-09-16T12:57:04.880Z,100013.23
2022-09-16T12:59:42.664Z,100012.25
2022-09-16T13:02:24.417Z,100013.89
2022-09-16T13:04:57.355Z,100015.88
2022-09-16T13:07:34.358Z,100028.96
2022-09-16T13:10:40.510Z,100033.83
2022-09-16T13:13:25.675Z,100031.18
2022-09-16T13:15:59.634Z,100024.89
2022-09-16T13:18:51.208Z,100026.95
2022-09-16T13:21:30.339Z,100031.53
2022-09-16T13:24:30.157Z,100032.14
2022-09-16T13:26:59.268Z,100028.72
2022-09-16T13:29:46.890Z,100030.90
2022-09-16T13:32:38.717Z,100034.02
2022-09-16T13:35:19.586Z,100033.05
2022-09-16T13:37:54.875Z,100030.41
2022-09-16T13:40:30.416Z,100030.30
2022-09-16T13:43:08.276Z,100023.83
2022-09-16T13:45:42.395Z,100024.56
2022-09-16T13:48:25.725Z,100026.70
2022-09-16T13:50:57.901Z,100029.08
2022-09-16T13:53:32.669Z,100029.96
2022-09-16T13:56:26.499Z,100028.75
2022-09-16T13:59:42.922Z,100025.24
2022-09-16T14:02:53.862Z,100025.70
2022-09-16T14:05:43.248Z,100023.84
2022-09-16T14:08:40.912Z,100019.08
2022-09-16T14:11:54.233Z,100019.90
2022-09-16T14:17:26.440Z,100019.41
2022-09-16T14:19:59.932Z,100020.42
2022-09-16T14:22:29.264Z,100019.41
2022-09-16T14:25:06.399Z,100018.05
2022-09-16T14:27:44.234Z,100020.73
2022-09-16T14:30:20.296Z,100027.02
2022-09-16T14:32:49.691Z,100028.75
2022-09-16T14:35:23.336Z,100028.90
2022-09-16T14:37:57.229Z,100030.03
2022-09-16T14:40:27.938Z,100036.41
2022-09-16T14:43:08.404Z,100042.48
2022-09-16T14:45:38.216Z,100039.41
2022-09-16T14:48:10.377Z,100037.41
2022-09-16T14:50:42.962Z,100034.01
2022-09-16T14:53:36.288Z,100035.27
2022-09-16T14:56:06.647Z,100041.30
2022-09-16T14:58:36.675Z,100039.02
2022-09-16T15:01:12.533Z,100029.52
2022-09-16T15:03:45.608Z,100029.08
2022-09-16T15:06:20.295Z,100033.55
2022-09-16T15:09:07.152Z,100031.58
2022-09-16T15:11:48.620Z,100026.52
2022-09-16T15:14:19.547Z,100028.16
2022-09-16T15:16:53.761Z,100024.96
2022-09-16T15:19:35.788Z,100021.18
2022-09-16T15:22:11.440Z,100016.06
2022-09-16T15:24:41.941Z,100009.91
2022-09-16T15:27:11.273Z,100010.89
2022-09-16T15:29:52.349Z,100016.36
2022-09-16T15:32:27.998Z,100015.81
2022-09-16T15:35:12.050Z,100020.09
2022-09-16T15:37:40.834Z,100031.04
2022-09-16T15:40:27.830Z,100030.03
2022-09-16T15:43:16.634Z,100030.25
2022-09-16T15:45:58.030Z,100025.50
2022-09-16T15:48:31.637Z,100024.27
2022-09-16T15:51:19.426Z,100021.92
2022-09-16T15:53:49.997Z,100022.61
2022-09-16T15:56:29.910Z,100021.52
2022-09-16T15:59:06.072Z,100022.95
2022-09-16T16:01:52.569Z,100022.67
2022-09-16T16:04:28.269Z,100023.83
2022-09-16T16:07:02.007Z,100024.52
2022-09-16T16:09:37.374Z,100028.02
2022-09-16T16:12:15.129Z,100029.06
2022-09-16T16:14:44.787Z,100025.96
2022-09-16T16:17:17.056Z,100020.41
2022-09-16T16:19:47.849Z,100023.61
2022-09-16T16:22:17.804Z,100025.81
2022-09-16T16:24:46.800Z,100027.08
2022-09-16T16:27:15.590Z,100026.32
2022-09-16T16:29:44.485Z,100024.10
2022-09-16T16:32:15.583Z,100020.58
2022-09-16T16:34:47.962Z,100019.09
2022-09-16T16:37:44.438Z,100021.04
2022-09-16T16:40:08.131Z,100025.19
2022-09-16T16:42:36.684Z,100025.40
2022-09-16T16:45:06.006Z,100026.91
2022-09-16T16:47:35.199Z,100027.26
2022-09-16T16:50:04.188Z,100027.67
2022-09-16T16:52:32.967Z,100029.02
2022-09-16T16:55:01.664Z,100031.41
2022-09-16T16:57:30.271Z,100032.84
2022-09-16T16:59:59.069Z,100033.09
2022-09-16T17:02:27.782Z,100037.09
2022-09-16T17:04:56.609Z,100040.48
2022-09-16T17:07:26.951Z,100039.68
2022-09-16T17:10:00.036Z,100038.90
2022-09-16T17:12:28.911Z,100032.95
2022-09-16T17:14:57.601Z,100029.90
2022-09-16T17:17:30.729Z,100030.77
2022-09-16T17:20:01.034Z,100034.33
2022-09-16T17:22:29.800Z,100034.02
2022-09-16T17:24:58.795Z,100033.59
2022-09-16T17:27:28.302Z,100025.44
2022-09-16T17:29:56.891Z,100027.17
2022-09-16T17:32:25.469Z,100031.55
2022-09-16T17:34:54.157Z,100036.74
2022-09-16T17:37:23.048Z,100038.48
2022-09-16T17:39:52.304Z,100040.95
2022-09-16T17:42:21.650Z,100037.80
2022-09-16T17:44:50.445Z,100031.69
2022-09-16T17:47:19.331Z,100030.22
2022-09-16T17:49:48.120Z,100033.48
2022-09-16T17:52:16.926Z,100033.80
2022-09-16T17:54:45.804Z,100035.89
2022-09-16T17:57:14.489Z,100040.19
2022-09-16T17:59:43.180Z,100041.02
2022-09-16T18:02:12.527Z,100049.73
2022-09-16T18:04:44.366Z,100045.52
2022-09-16T18:07:13.027Z,100046.77
2022-09-16T18:09:41.609Z,100045.61
2022-09-16T18:12:11.012Z,100046.42
2022-09-16T18:14:40.103Z,100048.04
2022-09-16T18:17:09.015Z,100045.66
2022-09-16T18:19:37.886Z,100042.05
2022-09-16T18:22:06.573Z,100038.21
2022-09-16T18:24:35.262Z,100042.54
2022-09-16T18:27:04.052Z,100044.54
2022-09-16T18:29:33.255Z,100050.50
2022-09-16T18:32:02.345Z,100049.77
2022-09-16T18:34:33.659Z,100048.48
2022-09-16T18:37:03.200Z,100047.64
2022-09-16T18:39:31.885Z,100044.52
2022-09-16T18:42:00.589Z,100042.98
2022-09-16T18:44:29.672Z,100045.48
2022-09-16T18:46:58.980Z,100044.86
2022-09-16T18:49:29.405Z,100043.91
2022-09-16T18:51:58.600Z,100042.83
2022-09-16T18:54:29.147Z,100038.85
2022-09-16T18:57:01.316Z,100044.33
2022-09-16T18:59:33.032Z,100050.81
2022-09-16T19:02:04.164Z,100050.60
2022-09-16T19:04:37.388Z,100046.33
2022-09-16T19:07:08.624Z,100045.09
2022-09-16T19:09:40.108Z,100043.35
2022-09-16T19:12:13.564Z,100035.05
2022-09-16T19:14:42.376Z,100032.35
2022-09-16T19:17:11.553Z,100032.70
2022-09-16T19:19:40.363Z,100034.85
2022-09-16T19:22:09.160Z,100031.51
2022-09-16T19:24:38.791Z,100033.42
2022-09-16T19:27:07.560Z,100030.58
2022-09-16T19:29:36.750Z,100027.54
2022-09-16T19:32:05.527Z,100023.61
2022-09-16T19:34:34.636Z,100023.40
2022-09-16T19:37:03.221Z,100021.45
2022-09-16T19:39:32.215Z,100016.14
2022-09-16T19:42:03.876Z,100018.39
2022-09-16T19:44:32.969Z,100017.65
2022-09-16T19:47:02.570Z,100018.09
2022-09-16T19:49:31.257Z,100025.70
2022-09-16T19:52:00.062Z,100026.38
2022-09-16T19:54:28.732Z,100029.16
2022-09-16T19:56:57.831Z,100026.38
2022-09-16T19:59:26.417Z,100023.42
2022-09-16T20:01:55.219Z,100024.80
2022-09-16T20:04:23.890Z,100027.02
2022-09-16T20:06:52.475Z,100029.05
2022-09-16T20:09:21.164Z,100025.52
2022-09-16T20:11:52.434Z,100021.82
2022-09-16T20:14:22.328Z,100021.40
2022-09-16T20:16:52.275Z,100022.66
2022-09-16T20:19:21.870Z,100015.46
2022-09-16T20:21:50.889Z,100016.56
2022-09-16T20:24:21.966Z,100008.67
2022-09-16T20:26:55.079Z,100003.84
2022-09-16T20:29:24.174Z,100003.40
2022-09-16T20:31:54.026Z,100006.25
2022-09-16T20:34:24.525Z,100007.59
2022-09-16T20:36:55.249Z,100005.67
2022-09-16T20:39:24.344Z,100008.19
2022-09-16T20:41:53.144Z,100008.84
2022-09-16T20:44:22.436Z,100009.94
2022-09-16T20:46:51.123Z,100011.61
2022-09-16T20:49:23.172Z,100008.23
2022-09-16T20:51:52.287Z,100008.77
2022-09-16T20:54:21.275Z,100004.09
2022-09-16T20:56:50.171Z,99997.52
2022-09-16T20:59:20.565Z,99991.46
2022-09-16T21:01:50.286Z,99987.70
2022-09-16T21:04:20.947Z,99983.58
2022-09-16T21:06:50.140Z,99985.13
2022-09-16T21:09:19.627Z,99984.13
2022-09-16T21:11:48.742Z,99986.55
2022-09-16T21:14:18.382Z,99987.37
2022-09-16T21:16:49.745Z,99985.58
2022-09-16T21:19:18.486Z,99982.59
2022-09-16T21:21:50.349Z,99978.84
2022-09-16T21:24:19.248Z,99976.22
2022-09-16T21:26:47.818Z,99977.53
2022-09-16T21:29:21.348Z,99980.52
2022-09-16T21:31:50.099Z,99984.34
2022-09-16T21:34:21.671Z,99985.66
2022-09-16T21:36:51.370Z,99992.63
2022-09-16T21:39:21.226Z,99994.22
2022-09-16T21:41:49.873Z,99994.17
2022-09-16T21:44:19.026Z,99993.65
2022-09-16T21:46:48.223Z,99994.28
2022-09-16T21:49:30.685Z,99992.16
2022-09-16T21:51:59.781Z,99989.80
2022-09-16T21:54:31.019Z,99985.27
2022-09-16T21:57:00.423Z,99984.27
2022-09-16T21:59:29.008Z,99982.20
2022-09-16T22:02:02.962Z,99980.02
2022-09-16T22:04:32.837Z,99976.05
2022-09-16T22:07:01.314Z,99974.51
2022-09-16T22:09:30.205Z,99967.61
2022-09-16T22:11:59.409Z,99965.09
2022-09-16T22:14:28.092Z,99967.21
2022-09-16T22:16:56.572Z,99965.28
2022-09-16T22:19:25.265Z,99962.44
2022-09-16T22:21:53.950Z,99962.03
2022-09-16T22:24:22.633Z,99961.29
2022-09-16T22:26:53.270Z,99963.27
2022-09-16T22:29:22.062Z,99959.16
2022-09-16T22:31:50.904Z,99956.15
2022-09-16T22:34:19.639Z,99946.35
2022-09-16T22:36:48.215Z,99940.95
2022-09-16T22:39:21.012Z,99936.65
2022-09-16T22:41:49.619Z,99931.84
2022-09-16T22:44:18.375Z,99935.16
2022-09-16T22:46:48.420Z,99931.32
2022-09-16T22:49:17.590Z,99928.67
2022-09-16T22:51:46.425Z,99925.17
2022-09-16T22:54:16.262Z,99927.47
2022-09-16T22:56:45.187Z,99931.59
2022-09-16T22:59:19.636Z,99931.09
2022-09-16T23:01:49.399Z,99926.68
2022-09-16T23:04:18.701Z,99927.91
2022-09-16T23:06:47.713Z,99931.13
2022-09-16T23:09:16.610Z,99935.71
2022-09-16T23:11:45.633Z,99942.66
2022-09-16T23:14:25.138Z,99946.02
2022-09-16T23:16:54.649Z,99945.02
2022-09-16T23:19:23.845Z,99939.41
2022-09-16T23:21:52.836Z,99940.22
2022-09-16T23:24:22.347Z,99936.98
2022-09-16T23:26:51.043Z,99934.45
2022-09-16T23:29:19.819Z,99927.51
2022-09-16T23:31:48.628Z,99930.26
2022-09-16T23:34:20.047Z,99934.05
2022-09-16T23:36:49.974Z,99933.93
2022-09-16T23:39:19.076Z,99934.68
2022-09-16T23:41:49.071Z,99932.61
2022-09-16T23:44:17.681Z,99933.09
2022-09-16T23:46:46.450Z,99935.45
2022-09-16T23:49:17.294Z,99932.92
2022-09-16T23:51:47.725Z,99932.98
2022-09-16T23:54:16.821Z,99931.36
2022-09-16T23:56:45.505Z,99929.91
2022-09-16T23:59:14.091Z,99926.33
